Time;durP1;ratioP1;P1;durP2;ratioP2;P2;SDS_P1;SDS_P2;PMS_P1;PMS_P2;Temp;Humidity;BMP_temperature;BMP_pressure;BME280_temperature;BME280_humidity;BME280_pressure;Samples;Min_cycle;Max_cycle;Signal;HPM_P1;HPM_P2
2023/03/01 00:00:12;;;;;;;9.30;8.60;;;;;;;;;;4995388;28;20034;-55
2023/03/01 00:02:37;;;;;;;9.10;8.50;;;;;;;;;;4995035;28;20117;-53
2023/03/01 00:05:04;;;;;;;9.77;9.13;;;;;;;;;;4995362;28;20105;-54
2023/03/01 00:07:29;;;;;;;10.73;9.93;;;;;;;;;;4995908;28;20077;-55
2023/03/01 00:09:54;;;;;;;9.82;9.18;;;;;;;;;;4993196;28;20120;-55
2023/03/01 00:12:20;;;;;;;8.88;8.27;;;;;;;;;;4993891;28;20052;-55
2023/03/01 00:14:45;;;;;;;10.55;9.80;;;;;;;;;;4993723;28;20063;-54
2023/03/01 00:17:10;;;;;;;17.20;9.43;;;;;;;;;;4993408;28;20038;-54
2023/03/01 00:19:36;;;;;;;10.00;9.30;;;;;;;;;;4998890;28;20041;-55
2023/03/01 00:22:01;;;;;;;10.32;9.63;;;;;;;;;;4995639;28;20072;-54
2023/03/01 00:24:27;;;;;;;11.02;10.32;;;;;;;;;;4996256;28;20034;-56
2023/03/01 00:26:55;;;;;;;10.15;9.45;;;;;;;;;;4995369;28;20034;-54
2023/03/01 00:29:21;;;;;;;10.63;9.93;;;;;;;;;;4993763;28;20472;-55
2023/03/01 00:31:46;;;;;;;10.32;9.25;;;;;;;;;;4994542;28;20414;-54
2023/03/01 00:34:12;;;;;;;9.18;8.57;;;;;;;;;;4995716;28;20038;-52
2023/03/01 00:36:37;;;;;;;10.88;9.95;;;;;;;;;;4995273;28;20038;-54
2023/03/01 00:39:05;;;;;;;9.50;8.68;;;;;;;;;;4995013;28;20045;-55
2023/03/01 00:41:31;;;;;;;10.10;9.25;;;;;;;;;;4996029;28;20132;-55
2023/03/01 00:43:56;;;;;;;9.45;8.80;;;;;;;;;;4995092;28;20125;-54
2023/03/01 00:46:24;;;;;;;11.07;10.10;;;;;;;;;;4991905;28;20100;-52
2023/03/01 00:48:50;;;;;;;10.52;9.77;;;;;;;;;;4997055;28;20127;-55
2023/03/01 00:51:18;;;;;;;10.57;9.82;;;;;;;;;;4994145;28;20044;-55
2023/03/01 00:53:44;;;;;;;8.38;7.88;;;;;;;;;;4993461;28;20038;-53
2023/03/01 00:56:12;;;;;;;10.00;9.30;;;;;;;;;;4993424;28;20052;-54
2023/03/01 00:58:37;;;;;;;10.20;9.50;;;;;;;;;;4991386;28;20034;-55
2023/03/01 01:01:16;;;;;;;10.60;9.90;;;;;;;;;;4994364;28;20065;-51
2023/03/01 01:04:04;;;;;;;9.40;8.80;;;;;;;;;;4993061;28;20375;-54
2023/03/01 01:06:35;;;;;;;10.02;9.32;;;;;;;;;;4995216;28;20037;-53
2023/03/01 01:09:01;;;;;;;9.55;8.95;;;;;;;;;;4994718;28;20087;-54
2023/03/01 01:11:29;;;;;;;9.93;9.30;;;;;;;;;;4995020;28;20334;-53
2023/03/01 01:13:54;;;;;;;9.38;8.77;;;;;;;;;;4991585;28;20034;-54
2023/03/01 01:16:22;;;;;;;10.25;8.95;;;;;;;;;;4993548;28;20042;-52
2023/03/01 01:18:47;;;;;;;10.30;9.57;;;;;;;;;;4996070;28;20043;-54
2023/03/01 01:21:15;;;;;;;10.52;9.82;;;;;;;;;;4994808;28;20345;-54
2023/03/01 01:23:42;;;;;;;12.35;11.25;;;;;;;;;;4996252;28;20521;-53
2023/03/01 01:26:10;;;;;;;10.75;9.95;;;;;;;;;;5001381;28;20409;-54
2023/03/01 01:28:36;;;;;;;9.68;9.00;;;;;;;;;;5001256;28;20030;-53
2023/03/01 01:31:02;;;;;;;10.07;9.30;;;;;;;;;;5000592;28;20092;-53
2023/03/01 01:33:27;;;;;;;9.88;9.18;;;;;;;;;;4999515;28;20173;-54
2023/03/01 01:35:53;;;;;;;9.77;9.07;;;;;;;;;;4995693;28;20108;-54
2023/03/01 01:38:19;;;;;;;10.35;9.68;;;;;;;;;;5002033;28;20432;-53
2023/03/01 01:40:45;;;;;;;9.00;8.40;;;;;;;;;;4997608;28;20038;-54
2023/03/01 01:43:20;;;;;;;9.30;8.60;;;;;;;;;;5001294;28;20072;-54
2023/03/01 01:45:46;;;;;;;9.90;9.10;;;;;;;;;;4998341;28;20415;-52
2023/03/01 01:48:17;;;;;;;9.80;8.90;;;;;;;;;;5004022;28;20030;-51
2023/03/01 01:50:44;;;;;;;9.93;9.23;;;;;;;;;;5002058;28;20048;-54
2023/03/01 01:53:15;;;;;;;10.25;9.55;;;;;;;;;;5000037;28;20027;-54
2023/03/01 01:55:47;;;;;;;10.18;9.48;;;;;;;;;;5001245;28;20113;-55
2023/03/01 01:58:15;;;;;;;9.82;9.02;;;;;;;;;;5001225;28;20396;-55
2023/03/01 02:00:41;;;;;;;9.18;8.57;;;;;;;;;;4997293;28;20030;-54
2023/03/01 02:03:11;;;;;;;9.77;9.00;;;;;;;;;;4998824;28;20041;-54
2023/03/01 02:05:46;;;;;;;8.60;8.00;;;;;;;;;;5000225;28;20538;-54
2023/03/01 02:08:14;;;;;;;9.07;8.48;;;;;;;;;;5001957;28;20084;-54
2023/03/01 02:10:41;;;;;;;9.02;8.43;;;;;;;;;;4998786;28;20125;-53
2023/03/01 02:13:07;;;;;;;10.75;9.85;;;;;;;;;;5004477;28;20034;-54
2023/03/01 02:15:35;;;;;;;10.18;9.45;;;;;;;;;;4999699;28;20042;-51
2023/03/01 02:18:02;;;;;;;9.75;9.02;;;;;;;;;;5001040;28;20038;-53
2023/03/01 02:21:12;;;;;;;9.13;8.50;;;;;;;;;;5000023;28;20113;-55
2023/03/01 02:23:38;;;;;;;9.18;8.57;;;;;;;;;;4962786;28;20042;-54
2023/03/01 02:26:18;;;;;;;15.73;11.18;;;;;;;;;;4960470;28;20042;-54
2023/03/01 02:28:45;;;;;;;10.05;9.07;;;;;;;;;;4980995;28;20041;-54
2023/03/01 02:34:00;;;;;;;9.52;8.77;;;;;;;;;;4997835;28;20061;-55
2023/03/01 02:36:30;;;;;;;22.02;10.07;;;;;;;;;;4993622;28;20038;-54
2023/03/01 02:39:01;;;;;;;10.13;9.43;;;;;;;;;;4997433;28;20034;-55
2023/03/01 02:41:30;;;;;;;9.32;8.73;;;;;;;;;;4998982;28;20532;-55
2023/03/01 02:43:55;;;;;;;9.15;8.55;;;;;;;;;;4997606;28;20153;-54
2023/03/01 02:46:23;;;;;;;9.45;8.85;;;;;;;;;;4998688;28;20129;-52
2023/03/01 02:48:54;;;;;;;9.23;8.57;;;;;;;;;;4996240;28;20065;-54
2023/03/01 02:51:26;;;;;;;;;;;;;;;;;;5001888;28;20452;-55
2023/03/01 02:53:55;;;;;;;9.85;9.15;;;;;;;;;;4996163;28;20055;-54
2023/03/01 02:56:21;;;;;;;9.73;8.93;;;;;;;;;;4998601;28;20123;-54
2023/03/01 02:58:51;;;;;;;10.18;9.38;;;;;;;;;;4994189;28;20054;-55
2023/03/01 03:01:17;;;;;;;8.20;7.70;;;;;;;;;;4993738;28;20117;-54
2023/03/01 03:03:42;;;;;;;9.75;8.82;;;;;;;;;;4996532;28;20038;-54
2023/03/01 03:06:08;;;;;;;8.95;8.35;;;;;;;;;;4995672;28;20044;-55
2023/03/01 03:08:34;;;;;;;9.82;9.07;;;;;;;;;;4997668;28;20445;-54
2023/03/01 03:10:59;;;;;;;9.48;8.88;;;;;;;;;;4993330;28;20053;-54
2023/03/01 03:13:28;;;;;;;8.90;8.30;;;;;;;;;;4995530;28;20034;-53
2023/03/01 03:15:57;;;;;;;8.88;8.27;;;;;;;;;;4996591;28;20042;-53
2023/03/01 03:18:25;;;;;;;9.63;9.02;;;;;;;;;;4995870;28;20034;-53
2023/03/01 03:20:53;;;;;;;9.43;8.82;;;;;;;;;;4996352;28;20104;-54
2023/03/01 03:23:20;;;;;;;9.43;8.82;;;;;;;;;;4999481;28;20521;-54
2023/03/01 03:25:49;;;;;;;10.85;10.07;;;;;;;;;;4995843;28;20034;-54
2023/03/01 03:28:15;;;;;;;10.27;9.57;;;;;;;;;;4994886;28;20121;-54
2023/03/01 03:30:42;;;;;;;9.65;8.90;;;;;;;;;;4993417;28;20042;-54
2023/03/01 03:33:09;;;;;;;10.07;9.30;;;;;;;;;;4993999;28;20091;-53
2023/03/01 03:35:43;;;;;;;9.93;9.23;;;;;;;;;;4992616;28;20042;-55
2023/03/01 03:38:18;;;;;;;10.32;9.43;;;;;;;;;;4996916;28;20456;-54
2023/03/01 03:41:04;;;;;;;9.45;8.75;;;;;;;;;;4996746;28;20395;-54
2023/03/01 03:43:32;;;;;;;9.75;9.15;;;;;;;;;;5005111;28;20042;-54
2023/03/01 03:45:57;;;;;;;9.50;8.90;;;;;;;;;;4991897;28;20053;-51
2023/03/01 03:48:24;;;;;;;9.88;9.18;;;;;;;;;;4997426;28;20022;-55
2023/03/01 03:50:54;;;;;;;10.82;10.02;;;;;;;;;;4994807;28;20058;-55
2023/03/01 03:53:22;;;;;;;10.30;9.57;;;;;;;;;;4995462;28;20108;-55
2023/03/01 03:55:49;;;;;;;9.88;9.18;;;;;;;;;;4997151;28;20049;-54
2023/03/01 03:58:16;;;;;;;9.38;8.70;;;;;;;;;;4995925;28;20109;-54
2023/03/01 04:00:43;;;;;;;9.02;8.43;;;;;;;;;;4996430;28;20030;-54
2023/03/01 04:03:10;;;;;;;9.48;8.77;;;;;;;;;;4996356;28;20034;-53
2023/03/01 04:05:36;;;;;;;10.38;9.32;;;;;;;;;;4992838;28;20034;-54
2023/03/01 04:08:02;;;;;;;11.57;10.63;;;;;;;;;;4996642;28;20156;-53
2023/03/01 04:10:29;;;;;;;10.68;9.88;;;;;;;;;;4994477;28;20106;-54
2023/03/01 04:12:55;;;;;;;10.15;9.45;;;;;;;;;;4992886;28;20042;-51
2023/03/01 04:15:23;;;;;;;8.93;8.32;;;;;;;;;;4995484;28;20519;-54
2023/03/01 04:17:51;;;;;;;9.88;9.18;;;;;;;;;;4995265;28;20069;-55
2023/03/01 04:20:24;;;;;;;10.82;10.02;;;;;;;;;;4992864;28;20042;-54
2023/03/01 04:22:51;;;;;;;10.32;9.63;;;;;;;;;;4995430;28;20038;-54
2023/03/01 04:25:17;;;;;;;9.57;8.88;;;;;;;;;;4995474;28;20030;-51
2023/03/01 04:27:43;;;;;;;9.98;9.18;;;;;;;;;;4995939;28;20030;-55
2023/03/01 04:30:09;;;;;;;9.95;9.25;;;;;;;;;;4995004;28;20045;-53
2023/03/01 04:32:35;;;;;;;12.57;9.63;;;;;;;;;;4995215;28;20627;-54
2023/03/01 04:35:00;;;;;;;10.15;9.40;;;;;;;;;;4998961;28;20057;-55
2023/03/01 04:37:26;;;;;;;10.18;9.38;;;;;;;;;;4994537;28;20444;-56
2023/03/01 04:39:51;;;;;;;10.40;9.65;;;;;;;;;;4991819;28;20492;-55
2023/03/01 04:42:17;;;;;;;9.80;9.15;;;;;;;;;;4995413;28;20113;-53
2023/03/01 04:44:43;;;;;;;9.50;8.85;;;;;;;;;;4995381;28;20046;-55
2023/03/01 04:47:09;;;;;;;9.57;8.70;;;;;;;;;;4992756;28;20038;-51
2023/03/01 04:49:34;;;;;;;9.80;8.98;;;;;;;;;;4996109;28;20092;-52
2023/03/01 04:52:04;;;;;;;10.50;9.80;;;;;;;;;;4994257;28;20705;-56
2023/03/01 04:54:33;;;;;;;10.43;9.73;;;;;;;;;;4997419;28;20031;-55
2023/03/01 04:56:59;;;;;;;10.27;9.57;;;;;;;;;;4994607;28;20077;-55
2023/03/01 04:59:25;;;;;;;10.98;10.02;;;;;;;;;;4993562;28;20042;-54
2023/03/01 05:01:55;;;;;;;9.10;8.30;;;;;;;;;;4994947;28;20535;-53
2023/03/01 05:04:21;;;;;;;9.82;9.18;;;;;;;;;;4993065;28;20520;-55
2023/03/01 05:06:47;;;;;;;10.52;9.75;;;;;;;;;;4993805;28;20042;-53
2023/03/01 05:09:12;;;;;;;10.95;10.15;;;;;;;;;;4991884;28;20091;-55
2023/03/01 05:11:37;;;;;;;9.90;9.20;;;;;;;;;;4993839;28;20431;-54
2023/03/01 05:14:07;;;;;;;11.10;10.35;;;;;;;;;;4994799;28;20129;-51
2023/03/01 05:16:33;;;;;;;10.98;10.27;;;;;;;;;;4991726;28;20460;-52
2023/03/01 05:18:59;;;;;;;11.02;10.32;;;;;;;;;;4994531;28;20082;-54
2023/03/01 05:21:25;;;;;;;11.13;10.23;;;;;;;;;;4994379;28;20084;-51
2023/03/01 05:23:50;;;;;;;10.80;10.10;;;;;;;;;;4993741;28;20046;-54
2023/03/01 05:26:18;;;;;;;9.63;8.98;;;;;;;;;;4995913;28;20041;-51
2023/03/01 05:28:44;;;;;;;10.52;9.63;;;;;;;;;;4994885;28;20096;-54
2023/03/01 05:31:10;;;;;;;10.52;9.82;;;;;;;;;;4996343;28;20042;-54
2023/03/01 05:33:40;;;;;;;10.80;10.00;;;;;;;;;;4993996;28;20080;-51
2023/03/01 05:36:07;;;;;;;11.70;10.88;;;;;;;;;;4992434;28;20030;-51
2023/03/01 05:38:33;;;;;;;10.13;9.38;;;;;;;;;;4992441;28;20459;-52
2023/03/01 05:40:58;;;;;;;10.35;9.40;;;;;;;;;;4995216;28;20371;-53
2023/03/01 05:43:24;;;;;;;10.82;10.02;;;;;;;;;;4993628;28;20101;-54
2023/03/01 05:45:49;;;;;;;10.10;9.30;;;;;;;;;;4989273;28;20037;-53
2023/03/01 05:48:15;;;;;;;10.75;9.85;;;;;;;;;;4995901;28;20633;-54
2023/03/01 05:50:44;;;;;;;9.90;9.15;;;;;;;;;;4996857;28;20030;-55
2023/03/01 05:53:10;;;;;;;10.90;9.98;;;;;;;;;;4993995;28;20042;-53
2023/03/01 05:55:37;;;;;;;11.52;10.55;;;;;;;;;;4993322;28;20510;-52
2023/03/01 05:58:05;;;;;;;10.55;9.75;;;;;;;;;;4992422;28;20082;-55
2023/03/01 06:00:30;;;;;;;8.88;8.27;;;;;;;;;;4997682;28;20059;-52
2023/03/01 06:02:57;;;;;;;10.27;9.57;;;;;;;;;;4993069;28;20498;-55
2023/03/01 06:05:24;;;;;;;10.23;9.52;;;;;;;;;;4996107;28;20060;-54
2023/03/01 06:07:50;;;;;;;10.38;9.68;;;;;;;;;;4994556;28;20041;-52
2023/03/01 06:10:17;;;;;;;9.77;9.10;;;;;;;;;;4995727;28;20034;-53
2023/03/01 06:12:43;;;;;;;11.00;10.05;;;;;;;;;;4996011;28;20038;-54
2023/03/01 06:15:10;;;;;;;10.35;9.55;;;;;;;;;;4998053;28;20038;-55
2023/03/01 06:17:38;;;;;;;10.68;9.98;;;;;;;;;;4995616;28;20416;-52
2023/03/01 06:20:11;;;;;;;9.57;8.95;;;;;;;;;;4996794;28;20573;-54
2023/03/01 06:22:37;;;;;;;11.20;10.50;;;;;;;;;;4996080;28;20030;-54
2023/03/01 06:25:03;;;;;;;10.68;9.88;;;;;;;;;;4996463;28;20522;-51
2023/03/01 06:27:28;;;;;;;11.52;10.45;;;;;;;;;;4994917;28;20096;-54
2023/03/01 06:29:53;;;;;;;11.30;10.38;;;;;;;;;;4994338;28;20030;-55
2023/03/01 06:32:19;;;;;;;10.15;9.45;;;;;;;;;;4997284;28;20045;-51
2023/03/01 06:34:45;;;;;;;12.20;11.25;;;;;;;;;;4997458;28;20033;-51
2023/03/01 06:37:10;;;;;;;9.27;8.63;;;;;;;;;;4995851;28;20069;-54
2023/03/01 06:39:36;;;;;;;10.80;10.00;;;;;;;;;;4998129;28;20085;-52
2023/03/01 06:42:01;;;;;;;10.73;9.98;;;;;;;;;;4996322;28;20038;-55
2023/03/01 06:44:27;;;;;;;10.00;9.30;;;;;;;;;;4994530;28;20029;-54
2023/03/01 06:46:52;;;;;;;11.90;11.02;;;;;;;;;;4993996;28;20048;-51
2023/03/01 06:49:19;;;;;;;10.48;9.75;;;;;;;;;;4997666;28;20030;-53
2023/03/01 06:51:45;;;;;;;9.65;9.05;;;;;;;;;;4997668;28;20038;-54
2023/03/01 06:54:11;;;;;;;10.68;9.88;;;;;;;;;;4994294;28;20471;-52
2023/03/01 06:56:36;;;;;;;11.10;10.20;;;;;;;;;;4995313;28;20034;-54
2023/03/01 06:59:02;;;;;;;10.20;9.50;;;;;;;;;;4996138;28;20034;-51
2023/03/01 07:01:28;;;;;;;9.88;9.18;;;;;;;;;;4999158;28;20053;-53
2023/03/01 07:03:53;;;;;;;11.13;10.32;;;;;;;;;;4993634;28;20065;-53
2023/03/01 07:06:19;;;;;;;10.55;9.85;;;;;;;;;;4994740;28;20040;-53
2023/03/01 07:08:44;;;;;;;10.20;9.40;;;;;;;;;;4996094;28;20030;-50
2023/03/01 07:11:10;;;;;;;10.70;9.90;;;;;;;;;;4994406;28;20113;-53
2023/03/01 07:13:35;;;;;;;10.75;9.95;;;;;;;;;;4996708;28;20059;-51
2023/03/01 07:16:01;;;;;;;9.85;9.15;;;;;;;;;;4993195;28;20099;-52
2023/03/01 07:18:26;;;;;;;10.68;9.82;;;;;;;;;;4993751;28;20034;-53
2023/03/01 07:20:51;;;;;;;10.65;9.85;;;;;;;;;;4995813;28;20121;-52
2023/03/01 07:23:17;;;;;;;10.15;9.35;;;;;;;;;;4996307;28;20535;-51
2023/03/01 07:25:42;;;;;;;10.38;9.68;;;;;;;;;;4993473;28;20101;-51
2023/03/01 07:28:08;;;;;;;10.63;9.82;;;;;;;;;;4995243;28;20043;-51
2023/03/01 07:30:33;;;;;;;10.57;9.65;;;;;;;;;;4994778;28;20030;-53
2023/03/01 07:32:58;;;;;;;11.63;10.82;;;;;;;;;;4993662;28;20520;-52
2023/03/01 07:35:27;;;;;;;10.25;9.55;;;;;;;;;;4997146;28;20033;-50
2023/03/01 07:37:53;;;;;;;9.90;9.20;;;;;;;;;;4992843;28;20133;-54
2023/03/01 07:40:19;;;;;;;10.27;9.52;;;;;;;;;;4995747;28;20090;-52
2023/03/01 07:42:44;;;;;;;11.50;10.77;;;;;;;;;;4998684;28;20033;-49
2023/03/01 07:45:10;;;;;;;11.23;10.43;;;;;;;;;;4996461;28;20038;-47
2023/03/01 07:47:36;;;;;;;10.32;9.63;;;;;;;;;;4995317;28;20030;-49
2023/03/01 07:50:03;;;;;;;12.00;11.23;;;;;;;;;;4994842;28;20112;-52
2023/03/01 07:52:30;;;;;;;11.63;10.82;;;;;;;;;;4995471;28;20058;-50
2023/03/01 07:54:56;;;;;;;11.68;10.80;;;;;;;;;;4995020;28;20053;-51
2023/03/01 07:57:21;;;;;;;10.30;9.60;;;;;;;;;;4993108;28;20100;-49
2023/03/01 07:59:46;;;;;;;10.80;10.10;;;;;;;;;;4995029;28;20049;-50
2023/03/01 08:02:12;;;;;;;10.75;10.05;;;;;;;;;;4994516;28;20034;-49
2023/03/01 08:04:37;;;;;;;10.50;9.75;;;;;;;;;;4995272;28;20034;-51
2023/03/01 08:07:05;;;;;;;11.93;10.93;;;;;;;;;;4993331;28;20042;-48
2023/03/01 08:09:30;;;;;;;11.50;10.70;;;;;;;;;;4995102;28;20041;-49
2023/03/01 08:11:59;;;;;;;10.15;9.50;;;;;;;;;;4995395;28;20039;-51
2023/03/01 08:14:24;;;;;;;10.82;10.13;;;;;;;;;;4993439;28;20461;-51
2023/03/01 08:16:50;;;;;;;11.23;10.52;;;;;;;;;;4994504;28;20476;-49
2023/03/01 08:19:15;;;;;;;11.75;10.75;;;;;;;;;;4995845;28;20034;-51
2023/03/01 08:21:40;;;;;;;10.93;10.10;;;;;;;;;;4997321;28;20117;-48
2023/03/01 08:24:07;;;;;;;10.95;10.25;;;;;;;;;;4992660;28;20031;-48
2023/03/01 08:26:33;;;;;;;12.00;11.13;;;;;;;;;;4993492;28;20698;-50
2023/03/01 08:29:00;;;;;;;10.98;10.25;;;;;;;;;;4994341;28;20031;-48
2023/03/01 08:31:35;;;;;;;11.07;10.27;;;;;;;;;;4997581;28;20034;-49
2023/03/01 08:34:02;;;;;;;15.55;11.35;;;;;;;;;;4993512;28;20045;-50
2023/03/01 08:36:35;;;;;;;12.68;11.77;;;;;;;;;;4993918;28;20047;-51
2023/03/01 08:39:01;;;;;;;10.00;9.30;;;;;;;;;;4994653;28;20038;-48
2023/03/01 08:41:27;;;;;;;9.73;9.13;;;;;;;;;;4994338;28;20373;-48
2023/03/01 08:43:58;;;;;;;9.93;9.25;;;;;;;;;;4993195;28;20046;-47
2023/03/01 08:46:24;;;;;;;9.98;9.32;;;;;;;;;;4992838;28;20053;-49
2023/03/01 08:48:49;;;;;;;11.07;10.27;;;;;;;;;;4994080;28;20057;-48
2023/03/01 08:51:17;;;;;;;11.07;10.23;;;;;;;;;;4996132;28;20636;-50
2023/03/01 08:53:43;;;;;;;10.63;9.93;;;;;;;;;;4993216;28;20045;-49
2023/03/01 08:56:09;;;;;;;11.23;10.50;;;;;;;;;;4993521;28;20034;-50
2023/03/01 08:58:35;;;;;;;11.82;11.00;;;;;;;;;;4995231;28;20026;-48
2023/03/01 09:01:07;;;;;;;11.32;10.52;;;;;;;;;;4993223;28;20034;-50
2023/03/01 09:03:32;;;;;;;11.70;10.90;;;;;;;;;;4992772;28;20072;-50
2023/03/01 09:06:01;;;;;;;12.65;11.85;;;;;;;;;;4989390;28;20038;-52
2023/03/01 09:08:27;;;;;;;12.85;11.95;;;;;;;;;;4992826;28;20030;-52
2023/03/01 09:10:53;;;;;;;11.27;10.57;;;;;;;;;;4989833;28;20107;-47
2023/03/01 09:13:18;;;;;;;11.98;11.20;;;;;;;;;;4995339;28;20766;-52
2023/03/01 09:15:43;;;;;;;14.02;12.48;;;;;;;;;;4993853;28;20514;-53
2023/03/01 09:18:09;;;;;;;12.35;11.35;;;;;;;;;;4994365;28;20668;-52
2023/03/01 09:20:34;;;;;;;12.32;11.55;;;;;;;;;;4995139;28;20033;-51
2023/03/01 09:23:00;;;;;;;12.60;11.70;;;;;;;;;;4989212;28;20045;-50
2023/03/01 09:25:25;;;;;;;12.73;11.82;;;;;;;;;;4996589;28;20117;-50
2023/03/01 09:27:52;;;;;;;11.98;11.18;;;;;;;;;;4991961;28;20092;-51
2023/03/01 09:30:17;;;;;;;13.57;12.18;;;;;;;;;;4992882;28;20034;-51
2023/03/01 09:32:44;;;;;;;12.98;11.95;;;;;;;;;;4996333;28;20888;-49
2023/03/01 09:35:10;;;;;;;11.93;11.13;;;;;;;;;;4996726;28;20091;-48
2023/03/01 09:37:37;;;;;;;14.00;12.98;;;;;;;;;;4989586;28;20070;-49
2023/03/01 09:40:05;;;;;;;12.02;11.23;;;;;;;;;;4989205;28;20117;-48
2023/03/01 09:42:33;;;;;;;12.27;11.48;;;;;;;;;;4994810;28;20478;-51
2023/03/01 09:45:05;;;;;;;13.77;12.93;;;;;;;;;;4998024;28;20038;-49
2023/03/01 09:47:34;;;;;;;14.48;13.48;;;;;;;;;;4998937;28;20038;-52
2023/03/01 09:50:16;;;;;;;14.77;13.75;;;;;;;;;;4997692;28;20056;-51
2023/03/01 09:52:45;;;;;;;15.10;14.10;;;;;;;;;;4997237;28;20403;-51
2023/03/01 09:55:14;;;;;;;14.93;13.93;;;;;;;;;;4997704;28;20033;-51
2023/03/01 09:58:04;;;;;;;16.55;15.18;;;;;;;;;;4997378;28;20049;-53
2023/03/01 10:00:44;;;;;;;13.98;13.05;;;;;;;;;;4997087;28;20050;-50
2023/03/01 10:03:24;;;;;;;14.32;13.43;;;;;;;;;;4994416;28;20042;-51
2023/03/01 10:05:57;;;;;;;14.75;13.75;;;;;;;;;;4995977;28;20053;-50
2023/03/01 10:08:35;;;;;;;14.07;13.18;;;;;;;;;;4995173;28;20034;-51
2023/03/01 10:11:03;;;;;;;14.40;13.40;;;;;;;;;;4996932;28;20053;-49
2023/03/01 10:14:16;;;;;;;15.30;14.05;;;;;;;;;;4998097;28;20038;-53
2023/03/01 10:16:50;;;;;;;12.65;11.82;;;;;;;;;;4991507;28;20126;-52
2023/03/01 10:19:39;;;;;;;12.55;11.75;;;;;;;;;;4995877;28;23055;-51
2023/03/01 10:22:23;;;;;;;12.98;12.10;;;;;;;;;;4994277;28;20129;-50
2023/03/01 10:24:51;;;;;;;15.18;14.07;;;;;;;;;;4995326;28;20045;-49
2023/03/01 10:27:39;;;;;;;12.35;11.55;;;;;;;;;;4996380;28;20057;-52
2023/03/01 10:30:22;;;;;;;13.55;12.65;;;;;;;;;;4994323;28;20073;-51
2023/03/01 10:32:50;;;;;;;15.05;13.98;;;;;;;;;;4996818;28;20321;-52
2023/03/01 10:35:22;;;;;;;14.30;13.25;;;;;;;;;;4995095;28;20034;-51
2023/03/01 10:38:10;;;;;;;13.93;13.00;;;;;;;;;;4995151;28;20065;-50
2023/03/01 10:40:36;;;;;;;12.90;11.90;;;;;;;;;;4996215;28;20038;-50
2023/03/01 10:43:04;;;;;;;14.25;13.10;;;;;;;;;;4996918;28;20038;-53
2023/03/01 10:45:30;;;;;;;12.75;11.85;;;;;;;;;;4995868;28;20034;-52
2023/03/01 10:48:21;;;;;;;15.60;14.43;;;;;;;;;;4992964;28;20471;-53
2023/03/01 10:51:04;;;;;;;13.43;12.40;;;;;;;;;;4995186;28;20092;-49
2023/03/01 10:53:34;;;;;;;12.70;11.90;;;;;;;;;;4996096;28;20057;-51
2023/03/01 10:56:03;;;;;;;12.73;11.77;;;;;;;;;;4993459;28;20053;-51
2023/03/01 10:58:30;;;;;;;13.02;12.23;;;;;;;;;;4997499;28;20046;-48
2023/03/01 11:01:23;;;;;;;14.20;13.02;;;;;;;;;;4994183;28;20030;-49
2023/03/01 11:04:03;;;;;;;13.82;12.85;;;;;;;;;;4995501;28;20038;-53
2023/03/01 11:06:29;;;;;;;12.80;12.00;;;;;;;;;;4996041;28;20603;-49
2023/03/01 11:08:54;;;;;;;13.90;12.98;;;;;;;;;;4995509;28;20022;-53
2023/03/01 11:11:32;;;;;;;15.63;14.45;;;;;;;;;;4997783;28;20402;-50
2023/03/01 11:14:12;;;;;;;13.80;12.90;;;;;;;;;;4996555;28;20067;-50
2023/03/01 11:16:40;;;;;;;15.35;14.25;;;;;;;;;;4994109;28;20038;-51
2023/03/01 11:19:08;;;;;;;14.23;13.23;;;;;;;;;;4995338;28;20104;-51
2023/03/01 11:21:38;;;;;;;14.30;13.40;;;;;;;;;;4994202;28;20052;-51
2023/03/01 11:24:08;;;;;;;13.55;12.65;;;;;;;;;;4996221;28;20133;-49
2023/03/01 11:26:38;;;;;;;13.82;12.93;;;;;;;;;;4994964;28;20387;-52
2023/03/01 11:29:12;;;;;;;14.40;13.40;;;;;;;;;;4992044;28;20026;-52
2023/03/01 11:31:40;;;;;;;14.13;13.25;;;;;;;;;;4995387;28;20037;-50
2023/03/01 11:34:17;;;;;;;15.07;14.15;;;;;;;;;;4994050;28;20033;-51
2023/03/01 11:36:58;;;;;;;14.57;13.57;;;;;;;;;;4993534;28;20138;-50
2023/03/01 11:39:26;;;;;;;16.52;15.32;;;;;;;;;;4994516;28;20022;-52
2023/03/01 11:42:04;;;;;;;15.75;14.45;;;;;;;;;;4995112;28;20041;-52
2023/03/01 11:44:33;;;;;;;14.10;13.20;;;;;;;;;;4996260;28;20339;-50
2023/03/01 11:47:23;;;;;;;14.25;13.35;;;;;;;;;;4992080;28;20514;-49
2023/03/01 11:50:07;;;;;;;16.42;15.38;;;;;;;;;;4994632;28;20033;-49
2023/03/01 11:52:50;;;;;;;22.42;14.88;;;;;;;;;;4993925;28;20033;-48
2023/03/01 11:55:30;;;;;;;13.90;13.00;;;;;;;;;;4994708;28;20084;-50
2023/03/01 11:58:20;;;;;;;15.35;14.25;;;;;;;;;;4994847;28;20527;-49
2023/03/01 12:01:10;;;;;;;14.65;13.75;;;;;;;;;;4995419;28;20042;-50
2023/03/01 12:03:44;;;;;;;15.05;13.85;;;;;;;;;;5002043;28;20420;-51
2023/03/01 12:06:42;;;;;;;16.08;14.98;;;;;;;;;;4994192;28;20045;-50
2023/03/01 12:09:38;;;;;;;17.50;15.73;;;;;;;;;;4992832;28;20431;-52
2023/03/01 12:12:30;;;;;;;13.98;13.07;;;;;;;;;;4994821;28;20037;-50
2023/03/01 12:15:40;;;;;;;16.90;15.55;;;;;;;;;;4992793;28;20054;-52
2023/03/01 12:18:14;;;;;;;14.73;13.73;;;;;;;;;;4987322;28;20049;-49
2023/03/01 12:20:51;;;;;;;13.43;12.63;;;;;;;;;;4994123;28;20045;-51
2023/03/01 12:23:33;;;;;;;16.67;15.68;;;;;;;;;;4992691;28;20085;-51
2023/03/01 12:26:08;;;;;;;15.57;14.57;;;;;;;;;;4993015;28;20046;-49
2023/03/01 12:28:39;;;;;;;15.63;14.73;;;;;;;;;;4993822;28;20034;-49
2023/03/01 12:31:29;;;;;;;17.45;16.35;;;;;;;;;;4993018;28;20053;-53
2023/03/01 12:34:07;;;;;;;17.17;16.17;;;;;;;;;;4991416;28;20042;-55
2023/03/01 12:36:44;;;;;;;16.77;15.68;;;;;;;;;;4990672;28;20573;-54
2023/03/01 12:39:15;;;;;;;17.65;16.35;;;;;;;;;;4991932;28;20093;-53
2023/03/01 12:42:13;;;;;;;17.38;16.25;;;;;;;;;;4990513;28;20038;-53
2023/03/01 12:44:58;;;;;;;17.05;15.70;;;;;;;;;;4992298;28;20129;-55
2023/03/01 12:47:58;;;;;;;16.88;15.73;;;;;;;;;;4979706;28;20061;-54
2023/03/01 12:50:39;;;;;;;17.70;16.65;;;;;;;;;;4990898;28;20037;-56
2023/03/01 12:53:04;;;;;;;16.83;15.82;;;;;;;;;;4993386;28;20030;-55
2023/03/01 12:55:42;;;;;;;16.88;15.85;;;;;;;;;;4993339;28;20486;-57
2023/03/01 12:58:31;;;;;;;17.27;16.17;;;;;;;;;;4992127;28;20227;-53
2023/03/01 13:01:02;;;;;;;17.60;16.55;;;;;;;;;;4992298;28;20064;-54
2023/03/01 13:03:33;;;;;;;;;;;;;;;;;;4991654;28;20053;-54
2023/03/01 13:06:14;;;;;;;16.70;15.55;;;;;;;;;;4990574;28;19921;-55
2023/03/01 13:08:47;;;;;;;15.05;14.15;;;;;;;;;;4995522;28;20368;-55
2023/03/01 13:11:21;;;;;;;17.08;15.95;;;;;;;;;;4991206;28;20069;-55
2023/03/01 13:13:48;;;;;;;16.75;15.75;;;;;;;;;;4989604;28;20201;-55
2023/03/01 13:16:29;;;;;;;16.42;15.43;;;;;;;;;;4991328;28;20470;-56
2023/03/01 13:19:13;;;;;;;15.57;14.68;;;;;;;;;;4990721;28;20046;-53
2023/03/01 13:21:39;;;;;;;15.95;15.05;;;;;;;;;;4989616;28;20045;-54
2023/03/01 13:24:04;;;;;;;16.23;15.20;;;;;;;;;;4991199;28;20050;-55
2023/03/01 13:26:30;;;;;;;16.95;15.85;;;;;;;;;;4990983;28;20046;-58
2023/03/01 13:29:00;;;;;;;16.73;15.73;;;;;;;;;;4989551;28;20572;-56
2023/03/01 13:31:25;;;;;;;16.50;15.50;;;;;;;;;;4976386;28;20121;-55
2023/03/01 13:33:55;;;;;;;16.15;15.23;;;;;;;;;;4992003;28;20137;-55
2023/03/01 13:36:29;;;;;;;16.75;15.65;;;;;;;;;;4994025;28;20037;-56
2023/03/01 13:38:55;;;;;;;16.50;15.40;;;;;;;;;;4995895;28;20108;-56
2023/03/01 13:41:38;;;;;;;15.57;14.57;;;;;;;;;;4992338;28;20070;-55
2023/03/01 13:44:22;;;;;;;16.35;15.40;;;;;;;;;;4989499;28;20037;-55
2023/03/01 13:46:49;;;;;;;16.33;15.23;;;;;;;;;;4993831;28;20031;-56
2023/03/01 13:49:18;;;;;;;17.63;16.45;;;;;;;;;;4993981;28;20034;-53
2023/03/01 13:51:47;;;;;;;15.50;14.45;;;;;;;;;;4996449;28;20121;-54
2023/03/01 13:54:14;;;;;;;15.73;14.45;;;;;;;;;;4995110;28;20040;-54
2023/03/01 13:56:40;;;;;;;14.38;13.45;;;;;;;;;;4991667;28;20039;-55
2023/03/01 13:59:20;;;;;;;16.33;15.27;;;;;;;;;;4992977;28;20476;-54
2023/03/01 14:01:53;;;;;;;16.67;15.57;;;;;;;;;;4992891;28;20046;-55
2023/03/01 14:04:25;;;;;;;15.77;14.48;;;;;;;;;;4991971;28;20117;-55
2023/03/01 14:06:50;;;;;;;16.83;15.80;;;;;;;;;;4994739;28;20038;-54
2023/03/01 14:09:26;;;;;;;14.50;13.60;;;;;;;;;;4989923;28;20034;-55
2023/03/01 14:12:13;;;;;;;14.75;13.85;;;;;;;;;;4991504;28;20139;-55
2023/03/01 14:14:45;;;;;;;17.50;16.17;;;;;;;;;;4991939;28;20030;-54
2023/03/01 14:17:33;;;;;;;18.08;17.00;;;;;;;;;;4993754;28;20042;-53
2023/03/01 14:20:04;;;;;;;17.52;16.45;;;;;;;;;;4989843;28;20057;-54
2023/03/01 14:22:33;;;;;;;19.52;17.90;;;;;;;;;;4993954;28;20049;-56
2023/03/01 14:25:02;;;;;;;18.25;17.15;;;;;;;;;;4993879;28;20037;-53
2023/03/01 14:27:39;;;;;;;17.08;15.98;;;;;;;;;;4991312;28;20040;-55
2023/03/01 14:30:14;;;;;;;17.67;16.60;;;;;;;;;;4995038;28;20100;-54
2023/03/01 14:32:40;;;;;;;17.23;16.13;;;;;;;;;;4996143;28;20038;-54
2023/03/01 14:35:23;;;;;;;16.52;15.43;;;;;;;;;;4997599;28;20045;-53
2023/03/01 14:37:49;;;;;;;16.25;15.20;;;;;;;;;;4995908;28;20112;-54
2023/03/01 14:40:24;;;;;;;15.43;14.52;;;;;;;;;;4995317;28;20386;-53
2023/03/01 14:42:50;;;;;;;16.10;15.10;;;;;;;;;;4995516;28;20038;-53
2023/03/01 14:45:17;;;;;;;16.52;15.52;;;;;;;;;;4995622;28;20084;-54